Terminal Aerodrome Forecast
Issued by NWS

Current Version | Previous Version | Text Only | Print | Product List | Glossary Off
Versions: 1 2 3 4 5 6 7 8 9 10 11 12 13 14

000
FTUS41 KILN 041130
TAFLUK
TAF
KLUK 041130Z 0412/0512 27010KT P6SM OVC028
     FM041800 28007KT P6SM BKN028
     FM042100 29006KT P6SM SCT040
     FM050000 30004KT P6SM SKC=

USA.gov is the U.S. government's official web portal to all federal, state and local government web resources and services.